Benton, Ohio
Current Conditions -  °F | °C
As of 9:53 PM on Monday 20 Oct 2014 (Local Time) from KMNN Reporting Station
Haze Haze  
Wind Chill: 53°   Ceiling: 4000
Heat Index: 53°   Visibility: 6mi
Dew Point: 50°   Wind: 6mph
Humidity: 89%   Direction: 240°WSW
Pressure: 29.87"   Gusts: NA
Location:  40.948°N, 83.1346°W
Report Text: KMNN 210153Z AUTO 24005KT 6SM BR SCT027 OVC040 12/10 A2987 RMK AO2 SLP119 T01170100 TSNO
Loading
Personal Weather Stations






























Interactive Weather Map
Tropical Storm Tracking
New forecast layout! Learn more

10-Day Weather Forecast

Advertisements
Track Severe Weather on mobile